Latest Weather Observations for Laverton

IDW60801

Issued at 9:35 pm WST Thursday 30 October 2014 (issued every 30 minutes, with the page automatically refreshed every 10 minutes)

About weather observations | Map of weather stations | Latest weather observations for WA | Other Formats
Station Details ID: 012305 Name: LAVERTON AERO Lat: -28.61 Lon: 122.42 Height: 464.3 m
Data from the previous 72 hours. | See also: Recent months at Laverton
Date/Time
WST
Temp
°C
App
Temp
°C
Dew
Point
Rel
Hum
%
Delta-T
°C
Wind Press
QNH
hPa
Press
MSL
hPa
Rain
since 9 am
mm
Dir
 
Spd
km/h
Gust
km/h
Spd
kts
Gust
kts
30/09:30pm 25.7 23.1 9.5 36 9.1 W 13 15 7 8 1009.8 1007.8 0.0
30/09:00pm 26.0 23.8 9.4 35 9.3 W 11 15 6 8 1009.8 1007.8 0.0
30/08:30pm 26.2 24.5 10.0 36 9.2 W 9 11 5 6 1009.7 1007.7 0.0
30/08:00pm 27.9 25.1 8.7 30 10.8 WSW 13 15 7 8 1009.5 1007.6 0.0
30/07:30pm 28.5 26.3 9.2 30 10.9 W 11 13 6 7 1009.3 1007.3 0.0
30/07:00pm 29.7 27.3 8.7 27 11.9 W 11 15 6 8 1009.0 1007.0 0.0
30/06:30pm 31.2 28.5 8.8 25 12.8 W 13 17 7 9 1008.8 1006.8 0.0
30/06:00pm 32.5 30.1 9.9 25 13.2 W 13 17 7 9 1008.5 1006.5 0.0
30/05:30pm 33.2 30.9 10.5 25 13.4 WNW 13 20 7 11 1008.2 1006.2 0.0
30/05:00pm 33.5 30.5 10.8 25 13.5 W 17 28 9 15 1008.1 1006.1 0.0
30/04:30pm 32.8 31.6 12.9 29 12.1 S 11 17 6 9 1008.3 1006.3 0.0
30/04:00pm 33.2 31.0 13.3 30 12.3 WSW 17 20 9 11 1008.4 1006.4 0.0
30/03:30pm 33.2 30.1 13.3 30 12.2 SSW 22 30 12 16 1008.6 1006.6 0.0
30/03:00pm 34.6 29.1 7.6 19 15.3 W 26 43 14 23 1008.7 1006.7 0.0
30/02:30pm 33.8 29.0 10.4 24 13.8 NW 26 33 14 18 1009.0 1007.0 0.0
30/02:00pm 33.9 31.0 12.8 28 12.9 NW 20 33 11 18 1009.4 1007.5 0.0
30/01:30pm 33.1 29.4 12.7 29 12.4 WNW 24 39 13 21 1010.0 1008.0 0.0
30/01:00pm 32.2 29.9 12.9 31 11.8 W 17 26 9 14 1010.4 1008.4 0.0
30/12:30pm 31.3 29.0 13.1 33 11.1 WNW 17 32 9 17 1011.0 1009.0 0.0
30/12:00pm 30.7 29.7 13.5 35 10.5 W 11 28 6 15 1011.5 1009.6 0.0
30/11:30am 30.0 29.7 14.5 38 9.6 NW 9 17 5 9 1012.0 1010.0 0.0
30/11:00am 29.0 27.8 14.0 39 9.2 W 13 20 7 11 1012.5 1010.5 0.0
30/10:30am 28.0 27.0 14.6 44 8.2 SW 13 22 7 12 1013.0 1011.0 0.0
30/10:00am 27.6 26.0 14.9 45 7.8 SW 17 22 9 12 1013.4 1011.5 0.0
30/09:30am 27.0 25.1 15.1 48 7.3 SW 19 26 10 14 1013.8 1011.9 0.0
30/09:00am 27.1 24.6 14.1 44 7.9 SW 20 28 11 15 1013.9 1012.0 4.6
30/08:30am 27.2 25.3 14.2 44 7.9 NW 17 22 9 12 1013.5 1011.6 4.6
30/08:00am 25.7 23.1 13.2 46 7.5 N 19 28 10 15 1013.5 1011.6 4.6
30/07:30am 25.2 23.3 14.3 50 6.6 N 17 22 9 12 1013.5 1011.6 4.6
30/07:00am 23.5 21.1 13.9 55 5.7 N 19 26 10 14 1013.5 1011.6 4.6
30/06:30am 21.7 19.2 13.6 60 4.8 N 19 28 10 15 1013.3 1011.4 4.6
30/06:00am 21.3 18.5 13.2 60 4.7 N 20 28 11 15 1012.8 1010.8 4.6
30/05:30am 20.8 18.1 13.0 61 4.5 NNE 19 24 10 13 1012.7 1010.7 4.6
30/05:00am 20.7 18.1 13.2 62 4.4 NNE 19 22 10 12 1012.5 1010.5 4.6
30/04:30am 20.0 18.6 13.5 66 3.8 NNE 13 17 7 9 1012.5 1010.5 4.6
30/04:00am 19.0 16.6 14.3 74 2.8 NE 20 26 11 14 1011.7 1009.8 4.6
30/03:30am 17.6 19.1 14.7 83 1.7 CALM 0 0 0 0 1013.3 1011.4 4.6
30/03:00am 19.0 18.6 14.1 73 2.9 NW 9 13 5 7 1013.5 1011.6 4.6
30/02:30am 19.9 20.3 13.8 68 3.6 NW 4 9 2 5 1013.7 1011.8 4.6
30/02:00am 20.9 20.3 13.4 62 4.4 NNE 9 13 5 7 1013.2 1011.3 4.6
30/01:30am 20.6 18.9 13.6 64 4.1 NNE 15 22 8 12 1013.4 1011.5 4.6
30/01:00am 20.9 18.4 13.6 63 4.3 NNE 19 26 10 14 1013.3 1011.4 4.6
30/12:30am 20.7 18.7 13.9 65 4.0 NNE 17 24 9 13 1013.5 1011.6 4.6
30/12:00am 20.5 18.6 14.2 67 3.7 NE 17 22 9 12 1013.8 1011.9 4.6
 
Date/Time
WST
Temp
°C
App
Temp
°C
Dew
Point
Rel
Hum
%
Delta-T
°C
Wind Press
QNH
hPa
Press
MSL
hPa
Rain
since 9 am
mm
Dir
 
Spd
km/h
Gust
km/h
Spd
kts
Gust
kts
29/11:30pm 20.7 18.3 14.4 67 3.8 NE 20 28 11 15 1014.3 1012.3 4.6
29/11:00pm 21.1 18.3 14.3 65 4.0 NE 22 32 12 17 1014.6 1012.6 4.6
29/10:30pm 21.2 18.1 14.4 65 4.1 NNE 24 35 13 19 1015.1 1013.2 4.6
29/10:00pm 21.6 18.1 14.5 64 4.2 NNE 26 33 14 18 1015.3 1013.4 4.6
29/09:30pm 21.6 17.8 14.7 65 4.1 NNE 28 33 15 18 1015.5 1013.6 4.6
29/09:00pm 21.0 16.6 15.1 69 3.6 NNE 32 41 17 22 1016.5 1014.5 4.6
29/08:30pm 20.6 18.7 16.6 78 2.5 NNE 22 33 12 18 1017.5 1015.6 4.6
29/08:00pm 21.4 20.4 15.7 70 3.5 N 15 20 8 11 1016.2 1014.3 4.2
29/07:30pm 20.8 18.4 16.4 76 2.7 NNE 24 28 13 15 1014.6 1012.6 4.2
29/07:00pm 19.3 20.9 18.3 94 0.6 NNE 7 9 4 5 1016.1 1014.2 4.2
29/06:30pm 19.6 19.9 17.0 85 1.6 WNW 11 15 6 8 1017.3 1015.4 3.6
29/06:00pm 22.0 18.0 15.1 65 4.2 N 30 44 16 24 1017.4 1015.5 2.2
29/05:55pm 22.7 19.2 14.5 60 4.9 N 26 44 14 24 1017.0 1015.1 2.0
29/05:30pm 24.8 21.9 12.4 46 7.3 NNE 19 28 10 15 1014.9 1012.9 1.6
29/05:00pm 25.7 20.4 11.1 40 8.4 NNE 30 50 16 27 1012.9 1010.9 1.6
29/04:58pm 25.8 20.1 11.2 40 8.4 NNE 32 50 17 27 1013.0 1011.0 1.6
29/04:30pm 25.4 20.3 11.9 43 7.9 ENE 30 41 16 22 1012.1 1010.1 1.6
29/04:25pm 25.4 19.9 11.9 43 7.9 ENE 32 43 17 23 1012.0 1010.0 1.6
29/04:04pm 23.5 17.8 14.2 56 5.6 E 37 41 20 22 1012.7 1010.7 1.6
29/04:00pm 22.6 20.0 15.0 62 4.6 SE 22 28 12 15 1013.3 1011.4 1.6
29/03:30pm 24.1 20.8 13.9 53 6.1 ESE 24 30 13 16 1013.1 1011.1 1.4
29/03:00pm 25.6 21.5 12.8 45 7.6 S 26 35 14 19 1014.3 1012.3 1.4
29/02:30pm 24.2 22.9 14.9 56 5.7 SE 15 19 8 10 1014.2 1012.2 1.4
29/02:00pm 21.8 20.6 16.1 70 3.5 SSE 17 22 9 12 1015.3 1013.4 1.4
29/01:30pm 25.8 21.2 12.3 43 7.9 SSW 28 35 15 19 1015.6 1013.7 0.4
29/01:00pm 27.7 24.0 10.0 33 10.1 E 20 26 11 14 1013.9 1012.0 0.4
29/12:30pm 27.4 24.0 11.4 37 9.3 SE 20 26 11 14 1014.6 1012.6 0.4
29/12:00pm 25.3 22.5 12.5 45 7.5 SE 19 24 10 13 1015.6 1013.7 0.4
29/11:30am 23.0 21.0 14.0 57 5.4 SSE 17 24 9 13 1016.2 1014.3 0.4
29/11:00am 24.1 20.2 13.3 51 6.4 SSW 26 41 14 22 1016.7 1014.7 0.4
29/10:36am 26.9 19.3 5.8 26 11.2 W 35 54 19 29 1016.9 1014.9 0.2
29/10:30am 27.7 22.8 7.0 27 11.2 E 22 33 12 18 1015.4 1013.5 0.2
29/10:00am 26.8 22.2 8.3 31 10.2 E 22 30 12 16 1015.0 1013.0 0.2
29/09:30am 25.1 20.6 10.2 39 8.4 E 24 39 13 21 1015.3 1013.4 0.2
29/09:17am 25.4 19.5 10.4 39 8.5 ENE 32 56 17 30 1015.8 1013.9 0.2
29/09:16am 25.3 20.1 11.5 42 8.0 ENE 30 46 16 25 1016.1 1014.2 0.2
29/09:00am 26.0 22.0 5.0 26 10.9 SE 15 24 8 13 1017.4 1015.5 0.0
29/08:30am 27.1 21.0 2.9 21 12.2 SE 24 30 13 16 1016.3 1014.4 0.0
29/08:00am 27.3 22.1 3.7 22 12.1 E 20 28 11 15 1015.9 1014.0 0.0
29/07:30am 26.7 20.7 3.2 22 11.9 E 24 33 13 18 1015.5 1013.6 0.0
29/07:00am 26.4 20.8 3.6 23 11.6 E 22 30 12 16 1015.5 1013.6 0.0
29/06:30am 25.3 19.3 3.3 24 11.0 E 24 28 13 15 1015.4 1013.5 0.0
29/06:00am 25.4 20.4 3.4 24 11.0 E 19 24 10 13 1015.8 1013.9 0.0
29/05:30am 25.3 20.6 3.3 24 11.0 E 17 22 9 12 1016.0 1014.1 0.0
29/05:00am 25.4 20.4 3.4 24 11.1 ENE 19 24 10 13 1015.5 1013.6 0.0
29/04:30am 25.5 20.9 3.5 24 11.1 NE 17 24 9 13 1015.4 1013.5 0.0
29/04:00am 25.6 21.0 3.5 24 11.1 ENE 17 24 9 13 1015.3 1013.4 0.0
29/03:30am 25.9 22.0 3.2 23 11.4 ENE 13 19 7 10 1015.7 1013.8 0.0
29/03:00am 26.1 21.3 2.7 22 11.7 ENE 17 22 9 12 1015.1 1013.2 0.0
29/02:30am 26.2 20.5 2.8 22 11.7 E 22 28 12 15 1014.3 1012.3 0.0
29/02:00am 26.5 20.7 2.4 21 12.0 E 22 32 12 17 1014.4 1012.4 0.0
29/01:30am 26.7 21.2 1.9 20 12.2 E 20 28 11 15 1014.2 1012.2 0.0
29/01:00am 27.0 21.5 2.1 20 12.4 E 20 28 11 15 1014.3 1012.3 0.0
29/12:30am 27.1 21.3 2.2 20 12.4 E 22 28 12 15 1014.0 1012.1 0.0
29/12:00am 27.3 21.0 1.7 19 12.6 E 24 30 13 16 1014.3 1012.3 0.0
 
Date/Time
WST
Temp
°C
App
Temp
°C
Dew
Point
Rel
Hum
%
Delta-T
°C
Wind Press
QNH
hPa
Press
MSL
hPa
Rain
since 9 am
mm
Dir
 
Spd
km/h
Gust
km/h
Spd
kts
Gust
kts
28/11:30pm 27.6 21.7 1.9 19 12.8 E 22 28 12 15 1014.4 1012.4 0.0
28/11:00pm 27.7 22.2 2.0 19 12.8 E 20 28 11 15 1014.5 1012.5 0.0
28/10:30pm 27.8 23.4 2.8 20 12.6 ESE 15 20 8 11 1014.7 1012.7 0.0
28/10:00pm 28.1 23.6 2.3 19 12.9 E 15 20 8 11 1014.9 1012.9 0.0
28/09:30pm 28.7 23.8 2.1 18 13.3 E 17 22 9 12 1015.0 1013.0 0.0
28/09:00pm 29.3 24.4 1.7 17 13.8 E 17 20 9 11 1014.9 1012.9 0.0
28/08:30pm 29.9 24.7 2.2 17 14.0 E 19 22 10 12 1014.9 1012.9 0.0
28/08:00pm 30.4 25.0 2.6 17 14.2 ESE 20 28 11 15 1015.0 1013.0 0.0
28/07:30pm 30.7 25.2 2.0 16 14.6 ESE 20 26 11 14 1014.7 1012.7 0.0
28/07:00pm 31.2 26.0 2.4 16 14.8 ESE 19 22 10 12 1014.6 1012.6 0.0
28/06:30pm 31.5 28.0 3.5 17 14.6 SE 11 19 6 10 1014.7 1012.7 0.0
28/06:00pm 32.4 29.5 2.5 15 15.5 SE 7 7 4 4 1014.6 1012.6 0.0
28/05:30pm 32.6 29.7 1.7 14 15.8 SW 6 7 3 4 1014.6 1012.6 0.0
28/05:00pm 32.8 31.1 1.8 14 15.9 CALM 0 4 0 2 1014.5 1012.5 0.0
28/04:30pm 33.0 30.0 2.0 14 15.9 W 7 9 4 5 1014.4 1012.4 0.0
28/04:00pm 33.1 30.7 2.0 14 16.0 SE 4 11 2 6 1014.3 1012.3 0.0
28/03:30pm 33.3 30.2 1.2 13 16.3 ENE 7 11 4 6 1014.4 1012.4 0.0
28/03:00pm 33.5 29.8 2.4 14 16.1 NNE 11 15 6 8 1014.7 1012.7 0.0
28/02:30pm 33.6 30.1 3.4 15 16.0 NE 11 19 6 10 1015.0 1013.0 0.0
28/02:00pm 33.6 29.9 2.4 14 16.2 SE 11 20 6 11 1015.3 1013.4 0.0
28/01:30pm 33.1 29.3 2.0 14 16.0 E 11 20 6 11 1015.9 1014.0 0.0
28/01:00pm 33.1 29.5 3.0 15 15.7 NW 11 20 6 11 1016.5 1014.5 0.0
28/12:30pm 31.7 28.5 2.8 16 15.0 ENE 9 19 5 10 1016.8 1014.8 0.0
28/12:00pm 31.5 27.8 4.3 18 14.4 N 13 24 7 13 1017.2 1015.3 0.0
28/11:30am 31.5 28.4 3.5 17 14.6 ENE 9 17 5 9 1017.6 1015.7 0.0
28/11:00am 30.5 26.4 4.3 19 13.8 ESE 15 22 8 12 1018.0 1016.1 0.0
28/10:30am 30.9 25.9 4.6 19 14.0 E 20 30 11 16 1018.5 1016.6 0.0
28/10:00am 29.8 23.9 3.7 19 13.5 ENE 24 33 13 18 1018.9 1016.9 0.0
28/09:30am 28.2 21.8 3.1 20 12.8 NE 26 33 14 18 1019.2 1017.3 0.0
28/09:00am 27.5 20.7 3.2 21 12.3 ENE 28 37 15 20 1019.3 1017.4 0.0
28/08:30am 26.1 19.0 3.4 23 11.5 ENE 30 39 16 21 1019.3 1017.4 0.0
28/08:00am 24.6 17.0 2.7 24 10.8 ENE 32 41 17 22 1019.2 1017.3 0.0
28/07:30am 23.1 15.8 2.6 26 10.0 ENE 30 43 16 23 1019.2 1017.3 0.0
28/07:00am 21.8 14.3 3.5 30 9.0 ENE 32 43 17 23 1019.1 1017.2 0.0
28/06:30am 20.9 13.2 3.2 31 8.6 ENE 33 43 18 23 1019.1 1017.2 0.0
28/06:00am 20.3 12.7 3.1 32 8.3 ENE 32 43 17 23 1019.0 1017.1 0.0
28/05:30am 19.5 12.8 3.6 35 7.7 ENE 28 37 15 20 1018.9 1016.9 0.0
28/05:00am 19.0 12.4 4.0 37 7.3 ENE 28 35 15 19 1018.5 1016.6 0.0
28/04:30am 18.8 12.7 4.6 39 7.0 ENE 26 32 14 17 1018.3 1016.4 0.0
28/04:00am 19.2 13.1 4.6 38 7.2 ENE 26 35 14 19 1018.2 1016.3 0.0
28/03:30am 19.4 12.9 4.7 38 7.3 E 28 35 15 19 1018.2 1016.3 0.0
28/03:00am 19.8 13.7 4.7 37 7.5 E 26 33 14 18 1018.1 1016.2 0.0
28/02:30am 19.9 14.6 4.8 37 7.5 E 22 28 12 15 1017.9 1016.0 0.0
28/02:00am 20.2 14.5 5.1 37 7.6 E 24 32 13 17 1017.9 1016.0 0.0
28/01:30am 20.3 15.0 5.1 37 7.6 E 22 28 12 15 1017.9 1016.0 0.0
28/01:00am 20.5 15.7 4.9 36 7.8 E 19 24 10 13 1018.0 1016.1 0.0
28/12:30am 20.6 15.9 5.0 36 7.8 E 19 22 10 12 1018.3 1016.4 0.0
28/12:00am 21.0 16.4 5.4 36 7.9 E 19 22 10 12 1018.8 1016.8 0.0
 
Date/Time
WST
Temp
°C
App
Temp
°C
Dew
Point
Rel
Hum
%
Delta-T
°C
Wind Press
QNH
hPa
Press
MSL
hPa
Rain
since 9 am
mm
Dir
 
Spd
km/h
Gust
km/h
Spd
kts
Gust
kts
27/11:30pm 21.5 17.5 5.0 34 8.3 E 15 20 8 11 1019.1 1017.2 0.0
27/11:00pm 22.3 18.0 5.3 33 8.7 E 17 22 9 12 1019.2 1017.3 0.0
27/10:30pm 22.8 18.1 5.3 32 9.0 E 19 26 10 14 1019.2 1017.3 0.0
27/10:00pm 23.4 18.7 5.3 31 9.3 E 19 24 10 13 1019.3 1017.4 0.0

Other Formats:

Comma delimited format used in spreadsheet applications
http://www.bom.gov.au/fwo/IDW60801/IDW60801.94449.axf

JavaScript Object Notation format (JSON) in row-major order
http://www.bom.gov.au/fwo/IDW60801/IDW60801.94449.json